createdAt,value
2019-01-15T00:02:07.486Z,67.88
2019-01-15T00:04:38.502Z,67.08
2019-01-15T00:07:09.413Z,67.59
2019-01-15T00:09:40.424Z,67.44
2019-01-15T00:12:11.373Z,67.96
2019-01-15T00:14:42.384Z,67.65
2019-01-15T00:17:13.345Z,68.13
2019-01-15T00:19:44.338Z,68.04
2019-01-15T00:22:15.296Z,67.48
2019-01-15T00:24:46.217Z,68.01
2019-01-15T00:27:17.112Z,67.59
2019-01-15T00:29:48.104Z,67.82
2019-01-15T00:32:19.037Z,67.53
2019-01-15T00:34:50.032Z,67.12
2019-01-15T00:37:20.953Z,67.57
2019-01-15T00:39:51.901Z,67.80
2019-01-15T00:42:22.819Z,67.57
2019-01-15T00:44:53.822Z,67.47
2019-01-15T00:47:24.720Z,67.71
2019-01-15T00:49:55.662Z,67.94
2019-01-15T00:52:26.646Z,68.13
2019-01-15T00:54:57.565Z,67.93
2019-01-15T00:57:28.479Z,67.95
2019-01-15T00:59:59.428Z,68.11
2019-01-15T01:02:30.350Z,68.03
2019-01-15T01:05:01.407Z,68.18
2019-01-15T01:07:32.408Z,68.28
2019-01-15T01:10:03.384Z,68.26
2019-01-15T01:12:34.361Z,68.37
2019-01-15T01:15:06.271Z,68.24
2019-01-15T01:17:37.255Z,68.45
2019-01-15T01:20:09.612Z,68.14
2019-01-15T01:22:40.605Z,67.78
2019-01-15T01:25:12.157Z,68.15
2019-01-15T01:27:43.086Z,67.72
2019-01-15T01:30:19.185Z,67.63
2019-01-15T01:32:50.103Z,67.63
2019-01-15T01:35:21.025Z,67.55
2019-01-15T01:37:52.005Z,67.63
2019-01-15T01:40:22.949Z,67.37
2019-01-15T01:42:53.859Z,67.28
2019-01-15T01:45:24.807Z,67.05
2019-01-15T01:47:55.728Z,66.51
2019-01-15T01:50:27.631Z,66.77
2019-01-15T01:52:58.685Z,66.52
2019-01-15T01:55:29.619Z,66.69
2019-01-15T01:58:00.534Z,66.12
2019-01-15T02:00:31.471Z,66.35
2019-01-15T02:03:02.476Z,66.56
2019-01-15T02:05:33.472Z,66.33
2019-01-15T02:08:04.984Z,66.09
2019-01-15T02:10:36.006Z,65.66
2019-01-15T02:13:06.940Z,66.05
2019-01-15T02:15:37.887Z,66.17
2019-01-15T02:18:08.856Z,65.52
2019-01-15T02:20:39.883Z,66.14
2019-01-15T02:23:10.883Z,65.69
2019-01-15T02:25:41.902Z,65.68
2019-01-15T02:28:12.816Z,65.31
2019-01-15T02:30:43.829Z,65.41
2019-01-15T02:33:14.748Z,65.96
2019-01-15T02:35:45.682Z,65.68
2019-01-15T02:38:17.274Z,66.29
2019-01-15T02:40:48.278Z,66.27
2019-01-15T02:43:19.194Z,66.05
2019-01-15T02:45:50.150Z,66.38
2019-01-15T02:48:21.054Z,66.47
2019-01-15T02:50:52.190Z,66.33
2019-01-15T02:53:23.123Z,66.49
2019-01-15T02:55:54.087Z,66.46
2019-01-15T02:58:24.996Z,66.45
2019-01-15T03:00:55.931Z,66.57
2019-01-15T03:03:26.844Z,66.81
2019-01-15T03:05:57.781Z,66.80
2019-01-15T03:08:28.723Z,66.39
2019-01-15T03:10:59.654Z,66.88
2019-01-15T03:13:30.578Z,66.93
2019-01-15T03:16:01.578Z,66.92
2019-01-15T03:18:32.513Z,67.18
2019-01-15T03:21:03.461Z,66.76
2019-01-15T03:23:34.375Z,67.38
2019-01-15T03:26:05.408Z,67.15
2019-01-15T03:28:36.305Z,67.04
2019-01-15T03:31:07.252Z,67.23
2019-01-15T03:33:38.141Z,67.53
2019-01-15T03:36:09.149Z,67.31
2019-01-15T03:38:40.066Z,66.77
2019-01-15T03:41:11.041Z,67.11
2019-01-15T03:43:41.955Z,67.18
2019-01-15T03:46:12.912Z,67.23
2019-01-15T03:48:43.821Z,67.61
2019-01-15T03:51:14.862Z,67.91
2019-01-15T03:53:45.786Z,68.13
2019-01-15T03:56:16.732Z,68.15
2019-01-15T03:58:47.724Z,68.34
2019-01-15T04:01:18.668Z,68.49
2019-01-15T04:03:49.590Z,68.49
2019-01-15T04:06:20.648Z,68.79
2019-01-15T04:08:51.621Z,68.34
2019-01-15T04:11:22.628Z,68.47
2019-01-15T04:13:53.544Z,68.39
2019-01-15T04:16:24.450Z,68.85
2019-01-15T04:18:55.381Z,67.97
2019-01-15T04:21:26.322Z,68.48
2019-01-15T04:23:57.226Z,67.74
2019-01-15T04:26:28.132Z,67.67
2019-01-15T04:28:59.035Z,67.53
2019-01-15T04:31:29.976Z,67.70
2019-01-15T04:34:00.866Z,67.85
2019-01-15T04:36:31.779Z,67.78
2019-01-15T04:39:03.478Z,68.19
2019-01-15T04:41:35.418Z,68.15
2019-01-15T04:44:06.403Z,68.43
2019-01-15T04:46:37.361Z,68.35
2019-01-15T04:49:08.306Z,68.14
2019-01-15T04:51:39.195Z,68.12
2019-01-15T04:54:10.112Z,67.91
2019-01-15T04:56:41.218Z,68.27
2019-01-15T04:59:12.207Z,68.48
2019-01-15T05:01:43.124Z,68.46
2019-01-15T05:04:14.035Z,68.43
2019-01-15T05:06:45.006Z,68.55
2019-01-15T05:09:15.963Z,68.71
2019-01-15T05:11:46.893Z,68.87
2019-01-15T05:14:18.929Z,69.11
2019-01-15T05:16:50.934Z,69.24
2019-01-15T05:19:21.870Z,69.38
2019-01-15T05:21:52.779Z,70.42
2019-01-15T05:24:23.803Z,69.86
2019-01-15T05:26:54.727Z,69.40
2019-01-15T05:29:25.677Z,69.86
2019-01-15T05:31:56.638Z,69.95
2019-01-15T05:34:27.576Z,69.32
2019-01-15T05:36:58.514Z,68.96
2019-01-15T05:39:29.466Z,68.89
2019-01-15T05:42:00.510Z,68.84
2019-01-15T05:44:31.557Z,68.62
2019-01-15T05:47:02.460Z,69.07
2019-01-15T05:49:33.443Z,68.61
2019-01-15T05:52:04.367Z,68.86
2019-01-15T05:54:35.384Z,69.70
2019-01-15T05:57:06.300Z,69.70
2019-01-15T05:59:37.293Z,70.09
2019-01-15T06:02:08.273Z,70.04
2019-01-15T06:04:39.256Z,70.28
2019-01-15T06:07:10.213Z,70.72
2019-01-15T06:09:41.158Z,70.99
2019-01-15T06:12:12.097Z,71.38
2019-01-15T06:14:43.035Z,71.60
2019-01-15T06:17:14.045Z,72.02
2019-01-15T06:19:45.131Z,72.21
2019-01-15T06:22:16.088Z,72.57
2019-01-15T06:24:47.334Z,72.25
2019-01-15T06:27:18.305Z,72.71
2019-01-15T06:29:49.302Z,72.42
2019-01-15T06:32:20.279Z,72.39
2019-01-15T06:34:51.219Z,72.36
2019-01-15T06:37:22.156Z,72.32
2019-01-15T06:39:53.094Z,72.58
2019-01-15T06:42:24.095Z,72.26
2019-01-15T06:44:55.036Z,72.23
2019-01-15T06:47:26.042Z,72.18
2019-01-15T06:49:56.958Z,71.98
2019-01-15T06:52:27.886Z,72.34
2019-01-15T06:54:58.834Z,72.21
2019-01-15T06:57:29.753Z,72.31
2019-01-15T07:00:00.702Z,72.23
2019-01-15T07:02:31.918Z,72.37
2019-01-15T07:05:02.921Z,72.71
2019-01-15T07:07:33.837Z,73.37
2019-01-15T07:10:05.744Z,74.22
2019-01-15T07:12:36.837Z,74.92
2019-01-15T07:15:07.857Z,75.32
2019-01-15T07:17:38.793Z,75.87
2019-01-15T07:20:10.649Z,76.21
2019-01-15T07:22:41.660Z,76.06
2019-01-15T07:25:13.747Z,76.71
2019-01-15T07:27:44.742Z,76.99
2019-01-15T07:30:21.628Z,77.23
2019-01-15T07:32:52.564Z,76.97
2019-01-15T07:35:23.498Z,77.12
2019-01-15T07:37:54.569Z,77.21
2019-01-15T07:40:25.507Z,77.38
2019-01-15T07:42:56.447Z,77.83
2019-01-15T07:45:27.363Z,78.30
2019-01-15T07:47:58.404Z,79.03
2019-01-15T07:50:29.322Z,79.49
2019-01-15T07:53:00.304Z,79.82
2019-01-15T07:55:31.235Z,80.13
2019-01-15T07:58:02.268Z,80.24
2019-01-15T08:00:33.304Z,80.42
2019-01-15T08:03:04.571Z,80.70
2019-01-15T08:05:35.494Z,80.94
2019-01-15T08:08:06.475Z,81.75
2019-01-15T08:10:37.547Z,82.09
2019-01-15T08:13:08.811Z,82.21
2019-01-15T08:15:39.812Z,82.48
2019-01-15T08:18:10.896Z,82.85
2019-01-15T08:20:41.918Z,83.71
2019-01-15T08:23:12.910Z,84.17
2019-01-15T08:25:43.848Z,84.17
2019-01-15T08:28:14.885Z,83.79
2019-01-15T08:30:45.807Z,83.78
2019-01-15T08:33:16.819Z,83.63
2019-01-15T08:35:47.905Z,83.39
2019-01-15T08:38:18.952Z,83.45
2019-01-15T08:40:49.948Z,83.49
2019-01-15T08:43:20.962Z,83.40
2019-01-15T08:45:55.396Z,83.77
2019-01-15T08:48:26.903Z,84.02
2019-01-15T08:50:58.411Z,84.23
2019-01-15T08:53:29.535Z,84.78
2019-01-15T08:56:01.201Z,84.89
2019-01-15T08:58:32.149Z,85.17
2019-01-15T09:01:03.177Z,85.58
2019-01-15T09:03:34.148Z,85.92
2019-01-15T09:06:05.187Z,86.20
2019-01-15T09:08:36.244Z,86.48
2019-01-15T09:11:07.281Z,86.55
2019-01-15T09:13:38.387Z,86.75
2019-01-15T09:16:09.438Z,86.67
2019-01-15T09:18:40.824Z,86.64
2019-01-15T09:21:11.920Z,86.59
2019-01-15T09:23:42.892Z,86.58
2019-01-15T09:26:15.386Z,86.71
2019-01-15T09:28:46.671Z,86.75
2019-01-15T09:31:17.708Z,86.60
2019-01-15T09:33:48.753Z,86.46
2019-01-15T09:36:19.717Z,86.53
2019-01-15T09:38:50.649Z,86.45
2019-01-15T09:41:21.614Z,86.49
2019-01-15T09:43:52.759Z,86.41
2019-01-15T09:46:23.741Z,86.45
2019-01-15T09:48:54.723Z,86.36
2019-01-15T09:51:25.736Z,86.37
2019-01-15T09:54:15.442Z,86.45
2019-01-15T10:04:04.727Z,87.04
2019-01-15T10:06:35.694Z,87.17
2019-01-15T10:09:09.412Z,87.20
2019-01-15T10:11:40.458Z,87.22
2019-01-15T10:14:11.454Z,87.21
2019-01-15T10:16:42.415Z,87.27
2019-01-15T10:19:13.426Z,87.25
2019-01-15T10:21:45.373Z,87.31
2019-01-15T10:24:16.390Z,87.35
2019-01-15T10:26:47.414Z,87.29
2019-01-15T10:29:20.867Z,87.32
2019-01-15T10:32:37.796Z,87.35
2019-01-15T10:35:13.814Z,87.35
2019-01-15T10:37:44.827Z,87.07
2019-01-15T10:40:15.788Z,86.86
2019-01-15T10:42:46.784Z,86.59
2019-01-15T10:45:17.821Z,86.42
2019-01-15T10:47:48.832Z,85.99
2019-01-15T10:50:20.973Z,85.82
2019-01-15T10:52:52.995Z,85.56
2019-01-15T10:55:24.005Z,85.32
2019-01-15T10:57:55.014Z,85.00
2019-01-15T11:00:25.937Z,85.12
2019-01-15T11:02:56.952Z,85.10
2019-01-15T11:05:27.877Z,84.94
2019-01-15T11:07:58.808Z,84.78
2019-01-15T11:10:29.862Z,84.70
2019-01-15T11:13:02.378Z,84.37
2019-01-15T11:15:34.539Z,84.16
2019-01-15T11:18:06.594Z,84.17
2019-01-15T11:20:37.599Z,84.38
2019-01-15T11:23:08.556Z,84.59
2019-01-15T11:25:39.598Z,84.46
2019-01-15T11:28:10.663Z,84.50
2019-01-15T11:30:41.752Z,84.50
2019-01-15T11:33:12.848Z,84.76
2019-01-15T11:35:43.860Z,84.88
2019-01-15T11:38:14.901Z,84.78
2019-01-15T11:40:45.865Z,84.80
2019-01-15T11:43:16.932Z,84.84
2019-01-15T11:45:47.992Z,84.96
2019-01-15T11:48:19.045Z,84.89
2019-01-15T11:50:49.960Z,84.84
2019-01-15T11:53:20.947Z,84.57
2019-01-15T11:55:52.065Z,84.47
2019-01-15T11:58:23.207Z,84.42
2019-01-15T12:00:59.156Z,84.32
2019-01-15T12:03:55.339Z,84.32
2019-01-15T12:06:45.149Z,84.16
2019-01-15T12:09:33.753Z,83.71
2019-01-15T12:12:29.378Z,83.38
2019-01-15T12:15:19.319Z,83.33
2019-01-15T12:18:08.389Z,83.14
2019-01-15T12:20:51.183Z,82.90
2019-01-15T12:23:56.340Z,82.75
2019-01-15T12:26:50.602Z,82.58
2019-01-15T12:29:58.815Z,82.49
2019-01-15T12:32:51.505Z,82.41
2019-01-15T12:35:47.263Z,82.16
2019-01-15T12:38:43.039Z,81.87
2019-01-15T12:41:42.073Z,81.36
2019-01-15T12:44:50.371Z,81.01
2019-01-15T12:47:34.705Z,80.87
2019-01-15T12:50:18.226Z,80.90
2019-01-15T12:53:26.530Z,80.61
2019-01-15T12:56:19.653Z,80.76
2019-01-15T12:59:09.536Z,80.80
2019-01-15T13:02:02.299Z,81.00
2019-01-15T13:05:07.571Z,81.24
2019-01-15T13:08:08.298Z,81.29
2019-01-15T13:11:07.273Z,81.60
2019-01-15T13:13:59.902Z,81.80
2019-01-15T13:16:52.598Z,81.93
2019-01-15T13:19:48.585Z,82.25
2019-01-15T13:22:39.144Z,82.31
2019-01-15T13:25:32.960Z,82.62
2019-01-15T13:28:29.032Z,82.71
2019-01-15T13:31:18.993Z,82.66
2019-01-15T13:34:08.835Z,82.74
2019-01-15T13:36:57.669Z,82.77
2019-01-15T13:39:47.643Z,82.88
2019-01-15T13:42:52.929Z,82.99
2019-01-15T13:45:45.915Z,82.89
2019-01-15T13:48:41.977Z,83.04
2019-01-15T13:51:30.615Z,83.28
2019-01-15T13:54:19.070Z,83.28
2019-01-15T13:57:18.103Z,83.33
2019-01-15T14:00:02.625Z,83.37
2019-01-15T14:02:56.817Z,83.56
2019-01-15T14:05:38.200Z,83.76
2019-01-15T14:08:43.335Z,84.00
2019-01-15T14:11:31.806Z,84.26
2019-01-15T14:14:24.445Z,84.46
2019-01-15T14:17:14.294Z,84.70
2019-01-15T14:20:03.022Z,85.66
2019-01-15T14:22:59.223Z,85.06
2019-01-15T14:25:59.352Z,84.54
2019-01-15T14:28:46.510Z,84.37
2019-01-15T14:31:54.783Z,84.40
2019-01-15T14:34:44.758Z,84.34
2019-01-15T14:37:43.479Z,84.97
2019-01-15T14:40:37.350Z,85.57
2019-01-15T14:43:27.195Z,85.94
2019-01-15T14:46:15.608Z,86.20
2019-01-15T14:49:04.468Z,86.30
2019-01-15T14:51:54.311Z,86.41
2019-01-15T14:54:44.264Z,86.41
2019-01-15T14:57:37.240Z,86.51
2019-01-15T15:00:26.897Z,86.59
2019-01-15T15:03:22.382Z,86.77
2019-01-15T15:06:08.252Z,86.73
2019-01-15T15:08:59.485Z,86.78
2019-01-15T15:11:47.927Z,86.80
2019-01-15T15:14:31.834Z,86.76
2019-01-15T15:17:20.380Z,86.71
2019-01-15T15:20:10.321Z,86.56
2019-01-15T15:22:52.071Z,86.50
2019-01-15T15:25:45.081Z,86.35
2019-01-15T15:28:43.847Z,86.17
2019-01-15T15:31:32.921Z,86.14
2019-01-15T15:34:26.199Z,86.01
2019-01-15T15:37:14.747Z,85.90
2019-01-15T15:40:04.749Z,85.87
2019-01-15T15:42:57.679Z,85.84
2019-01-15T15:45:50.495Z,85.79
2019-01-15T15:48:46.159Z,85.77
2019-01-15T15:51:31.892Z,85.74
2019-01-15T15:54:28.001Z,85.82
2019-01-15T15:57:17.847Z,85.76
2019-01-15T16:00:06.533Z,85.72
2019-01-15T16:03:05.638Z,85.84
2019-01-15T16:06:07.695Z,85.91
2019-01-15T16:09:09.923Z,85.92
2019-01-15T16:11:58.830Z,85.89
2019-01-15T16:14:45.706Z,85.93
2019-01-15T16:17:35.540Z,85.97
2019-01-15T16:20:29.312Z,85.88
2019-01-15T16:23:28.399Z,86.03
2019-01-15T16:26:17.726Z,86.35
2019-01-15T16:29:23.003Z,86.57
2019-01-15T16:32:11.747Z,86.85
2019-01-15T16:35:07.764Z,86.97
2019-01-15T16:37:56.285Z,87.12
2019-01-15T16:40:53.210Z,87.18
2019-01-15T16:43:39.912Z,87.36
2019-01-15T16:46:26.643Z,87.54
2019-01-15T16:49:20.448Z,87.64
2019-01-15T16:52:09.231Z,87.92
2019-01-15T16:55:05.306Z,87.82
2019-01-15T16:58:01.073Z,87.73
2019-01-15T17:01:08.896Z,87.49
2019-01-15T17:03:52.902Z,87.33
2019-01-15T17:06:54.920Z,87.28
2019-01-15T17:09:43.678Z,87.00
2019-01-15T17:12:31.502Z,87.03
2019-01-15T17:15:36.468Z,87.16
2019-01-15T17:18:29.352Z,87.09
2019-01-15T17:21:13.721Z,87.35
2019-01-15T17:24:02.546Z,87.52
2019-01-15T17:27:07.843Z,87.64
2019-01-15T17:30:03.878Z,87.72
2019-01-15T17:32:53.511Z,87.94
2019-01-15T17:35:44.958Z,88.10
2019-01-15T17:38:37.874Z,88.21
2019-01-15T17:41:26.739Z,88.30
2019-01-15T17:44:05.577Z,88.46
2019-01-15T17:47:04.891Z,88.29
2019-01-15T17:49:53.845Z,88.18
2019-01-15T17:52:52.013Z,88.24
2019-01-15T17:55:57.018Z,88.21
2019-01-15T17:58:51.451Z,88.34
2019-01-15T18:01:33.706Z,88.46
2019-01-15T18:04:24.462Z,88.46
2019-01-15T18:07:13.225Z,88.43
2019-01-15T18:10:01.671Z,88.57
2019-01-15T18:13:03.565Z,88.63
2019-01-15T18:15:50.089Z,88.76
2019-01-15T18:18:28.606Z,88.85
2019-01-15T18:21:17.040Z,88.87
2019-01-15T18:24:06.895Z,88.89
2019-01-15T18:27:02.772Z,89.01
2019-01-15T18:29:51.213Z,89.07
2019-01-15T18:32:46.851Z,89.15
2019-01-15T18:35:39.480Z,89.22
2019-01-15T18:38:35.452Z,89.23
2019-01-15T18:41:25.280Z,89.30
2019-01-15T18:44:22.063Z,89.26
2019-01-15T18:47:24.016Z,89.27
2019-01-15T18:50:16.688Z,89.33
2019-01-15T18:53:10.304Z,89.27
2019-01-15T18:56:03.236Z,89.38
2019-01-15T18:58:51.932Z,89.36
2019-01-15T19:01:40.700Z,89.43
2019-01-15T19:04:25.653Z,89.40
2019-01-15T19:07:16.675Z,89.40
2019-01-15T19:10:18.699Z,89.39
2019-01-15T19:13:06.770Z,89.30
2019-01-15T19:16:06.481Z,89.29
2019-01-15T19:18:55.868Z,89.29
2019-01-15T19:21:44.388Z,89.35
2019-01-15T19:24:27.511Z,89.42
2019-01-15T19:27:13.822Z,89.53
2019-01-15T19:30:08.088Z,89.58
2019-01-15T19:33:11.408Z,89.68
2019-01-15T19:36:00.047Z,89.66
2019-01-15T19:38:53.016Z,89.77
2019-01-15T19:41:49.042Z,89.72
2019-01-15T19:44:35.539Z,89.78
2019-01-15T19:47:24.126Z,89.68
2019-01-15T19:50:23.093Z,89.73
2019-01-15T19:53:13.049Z,89.71
2019-01-15T19:56:09.150Z,89.73
2019-01-15T19:59:08.373Z,89.69
2019-01-15T20:01:56.822Z,89.62
2019-01-15T20:04:49.995Z,89.58
2019-01-15T20:07:52.191Z,89.58
2019-01-15T20:10:42.445Z,89.51
2019-01-15T20:13:32.381Z,89.53
2019-01-15T20:16:22.253Z,89.60
2019-01-15T20:19:27.225Z,89.62
2019-01-15T20:22:10.196Z,89.59
2019-01-15T20:25:00.030Z,89.59
2019-01-15T20:27:59.093Z,89.59
2019-01-15T20:31:00.956Z,89.58
2019-01-15T20:33:49.362Z,89.58
2019-01-15T20:36:32.676Z,89.68
2019-01-15T20:39:31.653Z,89.69
2019-01-15T20:42:24.587Z,89.62
2019-01-15T20:45:10.943Z,89.58
2019-01-15T20:47:52.763Z,89.56
2019-01-15T20:51:03.648Z,89.52
2019-01-15T20:53:52.472Z,89.44
2019-01-15T20:56:41.167Z,89.28
2019-01-15T20:59:34.717Z,89.02
2019-01-15T21:02:17.148Z,88.72
2019-01-15T21:05:16.135Z,88.54
2019-01-15T21:08:06.076Z,88.24
2019-01-15T21:11:02.312Z,87.58
2019-01-15T21:13:56.462Z,87.01
2019-01-15T21:16:44.923Z,86.54
2019-01-15T21:19:37.667Z,86.22
2019-01-15T21:22:26.169Z,85.63
2019-01-15T21:25:22.145Z,85.61
2019-01-15T21:28:20.873Z,85.54
2019-01-15T21:31:09.577Z,85.54
2019-01-15T21:34:03.569Z,85.32
2019-01-15T21:37:05.493Z,85.15
2019-01-15T21:39:54.297Z,85.01
2019-01-15T21:42:42.867Z,84.62
2019-01-15T21:45:35.672Z,84.56
2019-01-15T21:48:24.576Z,84.42
2019-01-15T21:51:13.290Z,83.98
2019-01-15T21:54:12.115Z,84.05
2019-01-15T21:57:06.001Z,83.72
2019-01-15T21:59:54.914Z,83.52
2019-01-15T22:02:51.064Z,83.43
2019-01-15T22:05:36.356Z,83.47
2019-01-15T22:08:26.846Z,83.17
2019-01-15T22:11:28.820Z,83.28
2019-01-15T22:14:17.652Z,83.37
2019-01-15T22:17:07.627Z,83.42
2019-01-15T22:20:00.612Z,83.45
2019-01-15T22:22:56.755Z,83.15
2019-01-15T22:25:45.506Z,83.10
2019-01-15T22:28:44.394Z,83.57
2019-01-15T22:31:39.373Z,83.33
2019-01-15T22:34:29.383Z,83.43
2019-01-15T22:37:22.272Z,83.17
2019-01-15T22:40:13.019Z,82.82
2019-01-15T22:43:02.645Z,82.54
2019-01-15T22:45:51.321Z,82.50
2019-01-15T22:48:41.231Z,81.92
2019-01-15T22:51:42.974Z,81.79
2019-01-15T22:54:26.332Z,81.57
2019-01-15T22:57:16.238Z,81.72
2019-01-15T23:00:05.248Z,81.60
2019-01-15T23:02:54.840Z,81.34
2019-01-15T23:05:39.688Z,81.34
2019-01-15T23:08:28.177Z,80.67
2019-01-15T23:11:17.008Z,80.90
2019-01-15T23:14:05.731Z,80.77
2019-01-15T23:17:04.687Z,80.47
2019-01-15T23:20:06.433Z,80.36
2019-01-15T23:23:08.466Z,80.60
2019-01-15T23:25:58.686Z,79.79
2019-01-15T23:28:48.615Z,79.88
2019-01-15T23:31:27.574Z,79.57
2019-01-15T23:34:17.513Z,79.85
2019-01-15T23:37:01.326Z,79.63
2019-01-15T23:39:55.218Z,79.73
2019-01-15T23:42:49.163Z,79.82
2019-01-15T23:45:44.936Z,79.54
2019-01-15T23:48:33.546Z,79.70
2019-01-15T23:51:22.304Z,79.23
2019-01-15T23:54:30.774Z,78.97
2019-01-15T23:57:19.483Z,79.52
